Time;durP1;ratioP1;P1;durP2;ratioP2;P2;SDS_P1;SDS_P2;PMS_P1;PMS_P2;Temp;Humidity;BMP_temperature;BMP_pressure;BME280_temperature;BME280_humidity;BME280_pressure;Samples;Min_cycle;Max_cycle;Signal;HPM_P1;HPM_P2
2021/07/15 00:01:58;;;;;;;2.27;2.07;;;16.30;99.90;;;;;;4931397;29;20451;-79
2021/07/15 00:04:25;;;;;;;2.40;2.20;;;16.30;99.90;;;;;;4933728;29;20458;-79
2021/07/15 00:06:52;;;;;;;2.20;1.97;;;16.30;99.90;;;;;;4923057;29;20463;-78
2021/07/15 00:09:21;;;;;;;3.73;2.30;;;16.30;99.90;;;;;;4924613;29;20479;-77
2021/07/15 00:11:49;;;;;;;1.70;1.60;;;16.20;99.90;;;;;;4914056;29;20543;-77
2021/07/15 00:14:17;;;;;;;1.93;1.80;;;16.20;99.90;;;;;;4904883;29;20466;-80
2021/07/15 00:16:45;;;;;;;2.53;2.03;;;16.20;99.90;;;;;;4935991;29;20451;-78
2021/07/15 00:19:14;;;;;;;2.43;1.90;;;16.20;99.90;;;;;;4935907;29;20796;-79
2021/07/15 00:21:42;;;;;;;2.20;2.00;;;16.20;99.90;;;;;;4932594;29;20526;-79
2021/07/15 00:24:08;;;;;;;2.87;1.80;;;16.20;99.90;;;;;;4898948;29;20420;-77
2021/07/15 00:26:37;;;;;;;2.07;1.87;;;16.20;99.90;;;;;;4931179;29;20460;-77
2021/07/15 00:29:05;;;;;;;2.20;2.00;;;16.20;99.90;;;;;;4915641;29;20441;-79
2021/07/15 00:31:32;;;;;;;2.33;2.13;;;16.20;99.90;;;;;;4931495;29;20490;-78
2021/07/15 00:33:58;;;;;;;1.90;1.80;;;16.10;99.90;;;;;;4940508;28;20444;-77
2021/07/15 00:36:25;;;;;;;2.07;1.87;;;16.10;99.90;;;;;;4929405;29;20470;-77
2021/07/15 00:38:53;;;;;;;2.40;2.20;;;16.10;99.90;;;;;;4930834;29;20449;-79
2021/07/15 00:41:20;;;;;;;2.70;2.27;;;16.10;99.90;;;;;;4913668;29;21095;-78
2021/07/15 00:43:48;;;;;;;2.50;2.17;;;16.10;99.90;;;;;;4913464;29;20465;-79
2021/07/15 00:46:15;;;;;;;2.87;2.40;;;16.00;99.90;;;;;;4933000;29;20800;-78
2021/07/15 00:48:42;;;;;;;2.50;2.10;;;16.00;99.90;;;;;;4929618;29;20457;-78
2021/07/15 00:51:10;;;;;;;2.40;2.13;;;16.00;99.90;;;;;;4932209;29;20482;-80
2021/07/15 00:53:38;;;;;;;2.30;2.10;;;16.00;99.90;;;;;;4929890;29;20448;-78
2021/07/15 00:56:06;;;;;;;2.40;2.20;;;16.00;99.90;;;;;;4932954;29;20454;-77
2021/07/15 00:58:33;;;;;;;2.37;2.03;;;16.00;99.90;;;;;;4930945;29;21014;-77
2021/07/15 01:01:02;;;;;;;2.33;2.13;;;16.00;99.90;;;;;;4914412;29;20447;-78
2021/07/15 01:03:29;;;;;;;2.43;2.23;;;15.90;99.90;;;;;;4935939;28;20465;-80
2021/07/15 01:05:57;;;;;;;2.40;2.20;;;16.00;99.90;;;;;;4935533;29;20480;-78
2021/07/15 01:08:24;;;;;;;2.50;2.30;;;15.90;99.90;;;;;;4931695;29;20821;-77
2021/07/15 01:10:54;;;;;;;2.37;2.13;;;16.00;99.90;;;;;;4929208;29;20999;-78
2021/07/15 01:13:34;;;;;;;2.53;2.33;;;16.00;99.90;;;;;;4915609;29;20450;-78
2021/07/15 01:16:12;;;;;;;3.00;2.13;;;15.90;99.90;;;;;;4927518;29;20867;-78
2021/07/15 01:18:51;;;;;;;2.33;2.13;;;15.90;99.90;;;;;;4925839;29;20559;-79
2021/07/15 01:21:42;;;;;;;2.50;2.30;;;15.90;99.90;;;;;;4933541;29;20470;-78
2021/07/15 01:24:32;;;;;;;2.30;2.10;;;15.90;99.90;;;;;;4930921;29;20450;-78
2021/07/15 01:27:16;;;;;;;2.27;1.83;;;15.90;99.90;;;;;;4930204;29;20455;-78
2021/07/15 01:30:02;;;;;;;2.50;2.30;;;15.90;99.90;;;;;;4906125;29;20462;-77
2021/07/15 01:32:33;;;;;;;2.20;2.00;;;15.90;99.90;;;;;;4918925;29;20508;-77
2021/07/15 01:35:04;;;;;;;5.10;2.00;;;15.80;99.90;;;;;;4933427;28;20438;-78
2021/07/15 01:37:33;;;;;;;1.97;1.83;;;15.80;99.90;;;;;;4928452;29;20482;-78
2021/07/15 01:40:02;;;;;;;2.70;2.20;;;15.80;99.90;;;;;;4930496;29;20494;-80
2021/07/15 01:42:30;;;;;;;1.80;1.70;;;15.80;99.90;;;;;;4916463;29;20450;-78
2021/07/15 01:44:58;;;;;;;2.30;2.10;;;15.80;99.90;;;;;;4931492;29;20477;-78
2021/07/15 01:47:28;;;;;;;2.60;2.00;;;15.80;99.90;;;;;;4933287;29;20428;-77
2021/07/15 01:49:57;;;;;;;1.90;1.80;;;15.80;99.90;;;;;;4942246;29;20471;-78
2021/07/15 01:52:25;;;;;;;2.30;2.13;;;15.80;99.90;;;;;;4937493;29;21014;-78
2021/07/15 01:54:53;;;;;;;2.00;1.70;;;15.80;99.90;;;;;;4932667;29;20446;-77
2021/07/15 01:57:21;;;;;;;2.47;2.27;;;15.70;99.90;;;;;;4932731;29;20466;-79
2021/07/15 01:59:50;;;;;;;2.13;1.93;;;15.80;99.90;;;;;;4936069;29;20962;-78
2021/07/15 02:02:19;;;;;;;2.50;2.30;;;15.70;99.90;;;;;;4931741;29;21004;-79
2021/07/15 02:04:47;;;;;;;2.33;2.13;;;15.70;99.90;;;;;;4936090;29;20458;-78
2021/07/15 02:07:15;;;;;;;3.30;2.60;;;15.70;99.90;;;;;;4930348;29;20453;-77
2021/07/15 02:09:43;;;;;;;2.27;2.07;;;15.70;99.90;;;;;;4933181;29;20446;-79
2021/07/15 02:12:10;;;;;;;2.43;2.23;;;15.70;99.90;;;;;;4933142;29;20479;-78
2021/07/15 02:14:37;;;;;;;2.50;2.30;;;15.70;99.90;;;;;;4935790;29;20454;-77
2021/07/15 02:17:06;;;;;;;2.60;2.40;;;15.70;99.90;;;;;;4935711;29;20447;-77
2021/07/15 02:19:34;;;;;;;2.50;2.30;;;15.60;99.90;;;;;;4924619;29;20985;-80
2021/07/15 02:22:03;;;;;;;2.77;2.57;;;15.60;99.90;;;;;;4934217;29;21533;-78
2021/07/15 02:24:33;;;;;;;2.80;2.00;;;15.60;99.90;;;;;;4925037;29;20961;-78
2021/07/15 02:27:04;;;;;;;2.27;2.10;;;15.60;99.90;;;;;;4929852;29;20471;-79
2021/07/15 02:29:32;;;;;;;2.57;2.37;;;15.60;99.90;;;;;;4918915;29;20466;-77
2021/07/15 02:32:04;;;;;;;2.10;2.00;;;15.60;99.90;;;;;;4916801;29;20885;-77
2021/07/15 02:35:06;;;;;;;2.40;2.17;;;15.60;99.90;;;;;;4916567;29;20472;-78
2021/07/15 02:37:39;;;;;;;1.87;1.77;;;15.60;99.90;;;;;;4829565;29;20494;-78
2021/07/15 02:40:08;;;;;;;2.53;2.33;;;15.60;99.90;;;;;;4829343;29;20487;-79
2021/07/15 02:42:35;;;;;;;2.20;2.00;;;15.60;99.90;;;;;;4829244;29;20644;-78
2021/07/15 02:45:02;;;;;;;2.13;1.93;;;15.60;99.90;;;;;;4829169;29;20467;-79
2021/07/15 02:47:29;;;;;;;2.30;2.10;;;15.60;99.90;;;;;;4838565;29;20474;-78
2021/07/15 02:49:56;;;;;;;2.20;2.03;;;15.60;99.90;;;;;;4840026;29;20462;-79
2021/07/15 02:52:23;;;;;;;2.60;2.40;;;15.60;99.90;;;;;;4838599;29;20498;-78
2021/07/15 02:54:51;;;;;;;2.83;2.63;;;15.70;99.90;;;;;;4843879;29;20941;-78
2021/07/15 02:57:26;;;;;;;2.40;2.20;;;15.60;99.90;;;;;;4866505;29;20451;-79
2021/07/15 03:00:01;;;;;;;2.47;2.27;;;15.70;99.90;;;;;;4858688;29;20467;-78
2021/07/15 03:02:30;;;;;;;2.27;2.07;;;15.70;99.90;;;;;;4869865;29;20922;-79
2021/07/15 03:05:01;;;;;;;2.67;2.47;;;15.70;99.90;;;;;;4862200;29;20948;-77
2021/07/15 03:07:32;;;;;;;2.43;2.23;;;15.70;99.90;;;;;;4869129;29;20466;-77
2021/07/15 03:10:02;;;;;;;2.70;2.50;;;15.70;99.90;;;;;;4944404;28;20959;-78
2021/07/15 03:12:34;;;;;;;4.07;3.07;;;15.70;99.90;;;;;;4939180;29;20504;-77
2021/07/15 03:15:02;;;;;;;3.90;2.60;;;15.80;99.90;;;;;;4936653;29;20807;-78
2021/07/15 03:17:33;;;;;;;3.33;2.97;;;15.80;99.90;;;;;;4926325;29;20477;-78
2021/07/15 03:20:07;;;;;;;3.03;2.80;;;15.70;99.90;;;;;;4933656;29;20457;-78
2021/07/15 03:22:36;;;;;;;4.60;3.33;;;15.80;99.90;;;;;;4916992;29;20460;-78
2021/07/15 03:25:08;;;;;;;4.07;3.67;;;15.80;99.90;;;;;;4918061;29;20812;-78
2021/07/15 03:27:36;;;;;;;6.07;4.60;;;15.80;99.90;;;;;;4910029;29;20483;-79
2021/07/15 03:30:07;;;;;;;7.50;5.47;;;15.70;99.90;;;;;;4914698;29;20459;-78
2021/07/15 03:32:35;;;;;;;7.97;5.50;;;15.80;99.90;;;;;;4933507;29;20465;-78
2021/07/15 03:35:03;;;;;;;10.00;6.40;;;15.80;99.90;;;;;;4929874;29;20966;-79
2021/07/15 03:37:30;;;;;;;11.03;6.80;;;15.80;99.90;;;;;;4910862;29;20460;-79
2021/07/15 03:39:58;;;;;;;10.40;7.00;;;15.80;99.90;;;;;;4927885;29;20572;-78
2021/07/15 03:42:29;;;;;;;9.80;7.20;;;15.90;99.90;;;;;;4933346;29;20414;-78
2021/07/15 03:44:58;;;;;;;11.50;6.90;;;15.90;99.90;;;;;;4932909;29;20442;-79
2021/07/15 03:47:25;;;;;;;7.93;6.37;;;15.80;99.90;;;;;;4921216;29;20438;-82
2021/07/15 03:49:53;;;;;;;11.70;7.53;;;15.90;99.90;;;;;;4934328;29;20451;-80
2021/07/15 03:52:20;;;;;;;16.37;9.40;;;15.90;99.90;;;;;;4944631;28;20486;-79
2021/07/15 03:54:49;;;;;;;26.17;11.27;;;15.90;99.90;;;;;;4924168;29;20462;-79
2021/07/15 03:57:18;;;;;;;31.33;12.57;;;15.90;99.90;;;;;;4914634;29;20450;-77
2021/07/15 03:59:49;;;;;;;24.50;11.87;;;15.90;99.90;;;;;;4917329;29;20442;-81
2021/07/15 04:02:19;;;;;;;31.37;12.50;;;15.90;99.90;;;;;;4926915;29;20813;-80
2021/07/15 04:04:50;;;;;;;22.27;11.80;;;15.90;99.90;;;;;;4920379;28;20471;-80
2021/07/15 04:07:19;;;;;;;25.60;12.03;;;15.90;99.90;;;;;;4935254;29;20473;-78
2021/07/15 04:09:48;;;;;;;26.77;12.63;;;15.90;99.90;;;;;;4908202;29;20470;-80
2021/07/15 04:12:20;;;;;;;26.67;12.30;;;15.90;99.90;;;;;;4917329;29;20488;-80
2021/07/15 04:15:04;;;;;;;28.33;13.30;;;15.90;99.90;;;;;;4931103;29;20995;-80
2021/07/15 04:17:35;;;;;;;25.10;12.80;;;15.90;99.90;;;;;;4928215;29;20482;-80
2021/07/15 04:20:05;;;;;;;26.10;12.23;;;15.90;99.90;;;;;;4950414;28;20428;-80
2021/07/15 04:22:33;;;;;;;27.73;13.60;;;15.90;99.90;;;;;;4922532;29;20827;-79
2021/07/15 04:25:02;;;;;;;24.67;11.93;;;15.90;99.90;;;;;;4928472;29;20473;-78
2021/07/15 04:27:31;;;;;;;23.40;12.87;;;15.80;99.90;;;;;;4918513;29;20475;-81
2021/07/15 04:30:02;;;;;;;20.93;10.70;;;15.90;99.90;;;;;;4912855;29;20520;-80
2021/07/15 04:32:33;;;;;;;20.60;11.00;;;16.00;99.90;;;;;;4892908;29;20468;-81
2021/07/15 04:35:01;;;;;;;16.00;9.20;;;16.00;99.90;;;;;;4933703;29;20459;-82
2021/07/15 04:37:29;;;;;;;17.67;10.63;;;16.00;99.90;;;;;;4932180;29;20549;-79
2021/07/15 04:39:57;;;;;;;16.63;9.43;;;16.00;99.90;;;;;;4908167;29;20464;-80
2021/07/15 04:42:25;;;;;;;14.83;9.40;;;16.00;99.90;;;;;;4924898;29;20525;-78
2021/07/15 04:44:53;;;;;;;20.43;9.80;;;16.10;99.90;;;;;;4917267;29;20465;-81
2021/07/15 04:47:24;;;;;;;20.40;9.50;;;16.10;99.90;;;;;;4932501;29;20453;-78
2021/07/15 04:49:51;;;;;;;19.00;10.07;;;16.10;99.90;;;;;;4924068;29;20479;-80
2021/07/15 04:52:20;;;;;;;18.53;9.73;;;16.10;99.90;;;;;;4932952;29;20499;-80
2021/07/15 04:54:48;;;;;;;19.97;10.77;;;16.20;99.90;;;;;;4932937;29;20808;-79
2021/07/15 04:57:15;;;;;;;14.93;9.60;;;16.20;99.90;;;;;;4909762;29;20470;-79
2021/07/15 04:59:42;;;;;;;17.73;9.57;;;16.20;99.90;;;;;;4939707;28;20462;-80
2021/07/15 05:02:09;;;;;;;15.23;9.27;;;16.20;99.90;;;;;;4937698;28;20799;-80
2021/07/15 05:04:38;;;;;;;18.57;9.67;;;16.30;99.90;;;;;;4920264;29;20445;-80
2021/07/15 05:07:05;;;;;;;19.47;9.33;;;16.30;99.90;;;;;;4920459;29;21128;-78
2021/07/15 05:09:32;;;;;;;19.47;10.40;;;16.20;99.90;;;;;;4913996;29;20434;-79
2021/07/15 05:11:59;;;;;;;24.90;11.37;;;16.30;99.90;;;;;;4914295;29;21002;-80
2021/07/15 05:14:26;;;;;;;20.33;11.67;;;16.30;99.90;;;;;;4920185;29;20453;-78
2021/07/15 05:16:55;;;;;;;21.87;12.40;;;16.30;99.90;;;;;;4922773;29;20447;-80
2021/07/15 05:19:22;;;;;;;22.90;11.80;;;16.30;99.90;;;;;;4916096;29;20969;-78
2021/07/15 05:21:51;;;;;;;28.20;13.13;;;16.30;99.90;;;;;;4918761;29;20463;-80
2021/07/15 05:24:18;;;;;;;28.87;15.07;;;16.30;99.90;;;;;;4925022;29;20458;-78
2021/07/15 05:26:45;;;;;;;29.90;14.50;;;16.40;99.90;;;;;;4935346;29;20421;-80
2021/07/15 05:29:12;;;;;;;37.77;16.10;;;16.50;99.90;;;;;;4934171;29;20471;-80
2021/07/15 05:31:39;;;;;;;41.17;17.87;;;16.50;99.90;;;;;;4924737;29;20460;-78
2021/07/15 05:34:06;;;;;;;40.70;18.67;;;16.60;99.90;;;;;;4936587;29;20458;-78
2021/07/15 05:36:33;;;;;;;37.20;18.83;;;16.60;99.90;;;;;;4944911;28;20453;-80
2021/07/15 05:39:02;;;;;;;40.30;20.07;;;16.60;99.90;;;;;;4927768;29;20488;-81
2021/07/15 05:41:29;;;;;;;42.83;19.57;;;16.70;99.90;;;;;;4923451;29;20465;-81
2021/07/15 05:43:56;;;;;;;45.10;21.40;;;16.80;99.90;;;;;;4907402;29;20813;-80
2021/07/15 05:46:23;;;;;;;42.73;19.87;;;16.80;99.90;;;;;;4929243;29;20924;-82
2021/07/15 05:48:50;;;;;;;64.23;24.27;;;16.80;99.90;;;;;;4928131;29;20503;-80
2021/07/15 05:51:17;;;;;;;72.17;24.53;;;16.90;99.90;;;;;;4937777;29;21000;-79
2021/07/15 05:53:44;;;;;;;92.63;29.53;;;16.90;99.90;;;;;;4938713;29;20821;-79
2021/07/15 05:56:12;;;;;;;106.30;29.37;;;17.00;99.90;;;;;;4926480;29;20444;-80
2021/07/15 05:58:39;;;;;;;87.03;28.80;;;17.10;99.90;;;;;;4937336;29;20455;-79
2021/07/15 06:01:06;;;;;;;57.43;22.53;;;17.20;99.90;;;;;;4934330;29;20485;-79
2021/07/15 06:03:33;;;;;;;47.03;20.77;;;17.30;99.90;;;;;;4927154;29;20480;-82
2021/07/15 06:06:00;;;;;;;39.23;19.67;;;17.40;99.90;;;;;;4914765;29;20470;-79
2021/07/15 06:08:27;;;;;;;48.10;19.23;;;17.50;99.90;;;;;;4936193;29;20473;-80
2021/07/15 06:10:54;;;;;;;41.60;18.73;;;17.60;99.90;;;;;;4930526;29;20451;-80
2021/07/15 06:13:22;;;;;;;31.83;16.23;;;17.60;99.90;;;;;;4924011;29;20924;-80
2021/07/15 06:15:49;;;;;;;35.23;18.90;;;17.70;99.90;;;;;;4937888;29;20450;-81
2021/07/15 06:18:16;;;;;;;39.60;18.30;;;17.70;99.90;;;;;;4937933;29;20845;-78
2021/07/15 06:20:43;;;;;;;32.50;16.77;;;17.80;99.90;;;;;;4926898;29;20492;-82
2021/07/15 06:23:09;;;;;;;32.80;17.03;;;17.80;99.90;;;;;;4929638;29;20493;-79
2021/07/15 06:25:36;;;;;;;28.57;16.07;;;17.90;99.90;;;;;;4935812;29;20462;-81
2021/07/15 06:28:03;;;;;;;29.17;14.87;;;17.90;99.90;;;;;;4934546;29;20484;-79
2021/07/15 06:30:32;;;;;;;29.17;15.93;;;18.00;99.90;;;;;;4933888;29;20463;-81
2021/07/15 06:32:59;;;;;;;23.87;15.07;;;17.90;99.90;;;;;;4934099;29;20504;-82
2021/07/15 06:35:27;;;;;;;22.30;13.80;;;18.00;99.90;;;;;;4937747;29;20963;-78
2021/07/15 06:37:55;;;;;;;22.83;14.63;;;18.00;99.90;;;;;;4933480;29;20453;-81
2021/07/15 06:40:23;;;;;;;25.50;15.23;;;18.00;99.90;;;;;;4934020;29;20490;-83
2021/07/15 06:42:51;;;;;;;28.00;15.40;;;17.90;99.90;;;;;;4916569;29;20880;-79
2021/07/15 06:45:18;;;;;;;26.37;15.20;;;17.90;99.90;;;;;;4917078;29;20450;-84
2021/07/15 06:47:46;;;;;;;25.37;15.40;;;17.90;99.90;;;;;;4926341;29;20534;-81
2021/07/15 06:50:15;;;;;;;23.03;15.50;;;17.90;99.90;;;;;;4930825;29;20454;-80
2021/07/15 06:52:43;;;;;;;26.53;16.77;;;17.90;99.90;;;;;;4909561;29;20585;-80
2021/07/15 06:55:11;;;;;;;26.57;17.00;;;17.90;99.90;;;;;;4913506;29;20536;-80
2021/07/15 06:57:39;;;;;;;29.60;17.77;;;18.00;99.90;;;;;;4904196;29;20467;-77
2021/07/15 07:00:08;;;;;;;24.77;16.93;;;18.00;99.90;;;;;;4903842;29;20556;-78
2021/07/15 07:02:39;;;;;;;28.17;18.10;;;17.90;99.90;;;;;;4936386;29;20450;-79
2021/07/15 07:05:08;;;;;;;31.57;18.33;;;17.90;99.90;;;;;;4934548;29;20458;-81
2021/07/15 07:07:36;;;;;;;31.70;19.20;;;18.00;99.90;;;;;;4906873;29;20493;-81
2021/07/15 07:10:04;;;;;;;34.80;19.40;;;17.90;99.90;;;;;;4907549;29;20459;-81
2021/07/15 07:12:31;;;;;;;30.90;18.20;;;18.00;99.90;;;;;;4934882;29;20482;-80
2021/07/15 07:14:58;;;;;;;28.33;17.43;;;18.00;99.90;;;;;;4928136;29;20533;-82
2021/07/15 07:17:25;;;;;;;32.77;19.17;;;18.00;99.90;;;;;;4922800;28;20795;-79
2021/07/15 07:19:52;;;;;;;36.73;19.70;;;18.10;99.90;;;;;;4917374;29;20454;-78
2021/07/15 07:22:20;;;;;;;32.47;18.07;;;18.10;99.90;;;;;;4920199;29;20646;-79
2021/07/15 07:24:47;;;;;;;31.27;18.50;;;18.10;99.90;;;;;;4910445;29;20964;-79
2021/07/15 07:27:14;;;;;;;29.23;18.07;;;18.20;99.90;;;;;;4931821;29;20454;-79
2021/07/15 07:29:41;;;;;;;33.23;18.57;;;18.30;99.90;;;;;;4927883;29;20600;-79
2021/07/15 07:32:08;;;;;;;29.87;17.97;;;18.40;99.90;;;;;;4920771;29;20459;-76
2021/07/15 07:34:35;;;;;;;25.20;16.13;;;18.50;99.90;;;;;;4932866;29;20476;-78
2021/07/15 07:37:02;;;;;;;28.90;16.20;;;18.50;99.90;;;;;;4934330;29;20462;-76
2021/07/15 07:39:30;;;;;;;22.93;16.73;;;18.60;99.90;;;;;;4925343;29;20502;-80
2021/07/15 07:41:57;;;;;;;23.40;16.40;;;18.60;99.90;;;;;;4921869;29;20462;-77
2021/07/15 07:44:24;;;;;;;22.23;16.77;;;18.70;99.90;;;;;;4932958;29;20473;-77
2021/07/15 07:46:51;;;;;;;26.00;16.10;;;18.80;99.90;;;;;;4917003;29;20455;-77
2021/07/15 07:49:18;;;;;;;36.47;19.87;;;18.90;99.90;;;;;;4924589;29;20992;-79
2021/07/15 07:51:45;;;;;;;22.90;16.70;;;19.00;99.90;;;;;;4929288;29;20463;-80
2021/07/15 07:54:12;;;;;;;22.53;16.97;;;19.20;99.90;;;;;;4924683;29;20502;-79
2021/07/15 07:56:40;;;;;;;21.43;15.93;;;19.30;99.90;;;;;;4933054;29;20849;-79
2021/07/15 07:59:07;;;;;;;23.60;17.00;;;19.50;99.90;;;;;;4931129;29;20859;-79
2021/07/15 08:01:35;;;;;;;24.00;18.97;;;19.70;99.90;;;;;;4921328;29;20924;-79
2021/07/15 08:04:03;;;;;;;19.47;15.23;;;19.80;99.90;;;;;;4894214;29;20458;-79
2021/07/15 08:06:33;;;;;;;17.07;14.70;;;20.10;99.90;;;;;;4917936;29;20461;-79
2021/07/15 08:09:03;;;;;;;13.40;11.97;;;20.20;99.90;;;;;;4931088;29;20566;-79
2021/07/15 08:11:30;;;;;;;10.90;9.90;;;20.30;99.90;;;;;;4917215;29;20454;-78
2021/07/15 08:13:59;;;;;;;10.37;9.23;;;20.30;99.90;;;;;;4936073;29;20478;-78
2021/07/15 08:16:25;;;;;;;10.47;9.40;;;20.40;99.90;;;;;;4925150;29;20937;-78
2021/07/15 08:18:52;;;;;;;12.83;10.90;;;20.30;99.90;;;;;;4931556;29;20467;-77
2021/07/15 08:21:21;;;;;;;12.13;10.93;;;20.40;99.90;;;;;;4917542;29;20454;-78
2021/07/15 08:23:49;;;;;;;12.43;11.13;;;20.40;99.90;;;;;;4919620;29;20470;-78
2021/07/15 08:26:16;;;;;;;13.97;12.07;;;20.40;99.90;;;;;;4910208;29;20467;-78
2021/07/15 08:28:43;;;;;;;13.73;11.40;;;20.40;99.90;;;;;;4932628;29;20493;-78
2021/07/15 08:31:11;;;;;;;13.30;11.20;;;20.50;99.90;;;;;;4933612;29;20466;-78
2021/07/15 08:33:38;;;;;;;12.57;11.13;;;20.50;99.90;;;;;;4924558;29;20490;-78
2021/07/15 08:36:05;;;;;;;13.53;12.10;;;20.60;99.90;;;;;;4905587;29;20460;-79
2021/07/15 08:38:32;;;;;;;15.07;13.57;;;20.60;99.90;;;;;;4929645;29;20458;-78
2021/07/15 08:40:59;;;;;;;14.50;12.30;;;20.60;99.90;;;;;;4929617;29;20455;-78
2021/07/15 08:43:27;;;;;;;13.33;11.73;;;20.70;99.90;;;;;;4921486;29;20792;-79
2021/07/15 08:45:57;;;;;;;14.10;10.90;;;20.80;99.90;;;;;;4906028;29;20459;-78
2021/07/15 08:48:25;;;;;;;12.70;11.50;;;20.80;99.90;;;;;;4910670;29;20477;-78
2021/07/15 08:50:53;;;;;;;12.17;10.53;;;20.80;99.90;;;;;;4932969;28;20455;-79
2021/07/15 08:53:23;;;;;;;13.13;10.30;;;20.90;99.90;;;;;;4927818;29;20489;-78
2021/07/15 08:58:30;;;;;;;12.80;10.10;;;20.70;99.90;;;;;;4931966;29;20454;-79
2021/07/15 09:00:57;;;;;;;11.87;10.60;;;20.70;99.90;;;;;;4925782;29;20902;-78
2021/07/15 09:03:26;;;;;;;10.10;9.10;;;20.40;99.90;;;;;;4932212;29;20473;-80
2021/07/15 09:05:53;;;;;;;9.57;8.67;;;20.40;99.90;;;;;;4932286;29;20461;-79
2021/07/15 09:08:20;;;;;;;9.73;8.73;;;20.40;99.90;;;;;;4924855;29;20486;-78
2021/07/15 09:10:47;;;;;;;10.83;9.27;;;20.30;99.90;;;;;;4921530;29;20462;-79
2021/07/15 09:13:14;;;;;;;11.27;10.20;;;20.40;99.90;;;;;;4925017;29;20483;-79
2021/07/15 09:15:47;;;;;;;9.47;8.67;;;20.50;99.90;;;;;;4914021;29;20448;-80
2021/07/15 09:18:15;;;;;;;9.60;8.70;;;20.50;99.90;;;;;;4903515;29;20486;-80
2021/07/15 09:20:44;;;;;;;9.40;8.50;;;20.60;99.90;;;;;;4907169;29;20447;-80
2021/07/15 09:23:13;;;;;;;9.30;8.17;;;20.60;99.90;;;;;;4927422;29;20463;-81
2021/07/15 09:25:56;;;;;;;8.80;8.00;;;20.60;99.90;;;;;;4881329;29;20453;-79
2021/07/15 09:28:29;;;;;;;8.10;7.40;;;20.70;99.90;;;;;;4912282;29;20471;-79
2021/07/15 09:30:56;;;;;;;8.00;7.30;;;20.70;99.90;;;;;;4929331;29;20447;-83
2021/07/15 09:33:31;;;;;;;9.90;6.90;;;20.70;99.90;;;;;;4922534;29;20486;-80
2021/07/15 09:36:14;;;;;;;6.20;5.70;;;20.70;99.90;;;;;;4927267;29;20482;-81
2021/07/15 09:38:42;;;;;;;5.83;5.33;;;20.80;99.90;;;;;;4896454;29;20494;-80
2021/07/15 09:41:08;;;;;;;5.73;5.23;;;20.70;99.90;;;;;;4925808;29;20467;-80
2021/07/15 09:43:38;;;;;;;5.33;4.83;;;20.70;99.90;;;;;;4922600;29;20470;-78
2021/07/15 09:46:18;;;;;;;6.53;6.00;;;20.80;99.90;;;;;;4927721;29;20517;-78
2021/07/15 09:48:47;;;;;;;6.50;4.57;;;20.70;99.90;;;;;;4927613;29;20462;-80
2021/07/15 09:51:17;;;;;;;4.30;4.00;;;20.80;99.90;;;;;;4927693;29;20821;-77
2021/07/15 09:53:45;;;;;;;4.50;4.10;;;20.90;99.90;;;;;;4893490;29;20483;-79
2021/07/15 09:56:13;;;;;;;4.50;4.20;;;20.80;99.90;;;;;;4926303;29;20469;-78
2021/07/15 09:58:41;;;;;;;3.97;3.67;;;20.80;99.90;;;;;;4912053;29;20471;-79
2021/07/15 10:01:10;;;;;;;3.20;2.90;;;20.80;99.90;;;;;;4908363;29;20470;-77
2021/07/15 10:03:39;;;;;;;2.67;2.47;;;20.80;99.90;;;;;;4898245;29;20454;-78
2021/07/15 10:06:06;;;;;;;2.70;2.50;;;20.80;99.90;;;;;;4921526;29;20458;-79
2021/07/15 10:08:36;;;;;;;2.43;2.23;;;20.60;99.90;;;;;;4899979;29;20492;-80
2021/07/15 10:11:19;;;;;;;2.70;2.50;;;20.40;99.90;;;;;;4919552;29;20462;-79
2021/07/15 10:13:48;;;;;;;2.23;2.03;;;20.40;99.90;;;;;;4917363;29;20492;-81
2021/07/15 10:16:15;;;;;;;2.80;2.60;;;20.40;99.90;;;;;;4917750;29;20450;-82
2021/07/15 10:18:45;;;;;;;2.37;2.17;;;20.40;99.90;;;;;;4934693;29;20490;-78
2021/07/15 10:21:15;;;;;;;3.27;3.07;;;20.40;99.90;;;;;;4920713;29;21010;-77
2021/07/15 10:23:44;;;;;;;3.70;3.40;;;20.30;99.90;;;;;;4920107;29;20443;-78
2021/07/15 10:26:13;;;;;;;3.80;3.50;;;20.30;99.90;;;;;;4914596;29;20966;-78
2021/07/15 10:28:44;;;;;;;3.80;3.50;;;20.40;99.90;;;;;;4919671;29;20468;-79
2021/07/15 10:31:13;;;;;;;2.97;2.77;;;20.30;99.90;;;;;;4914462;29;20458;-79
2021/07/15 10:33:41;;;;;;;3.70;3.20;;;20.40;99.90;;;;;;4924305;29;20489;-77
2021/07/15 10:36:09;;;;;;;3.93;3.20;;;20.40;99.90;;;;;;4918618;29;20450;-78
2021/07/15 10:38:38;;;;;;;3.37;3.07;;;20.40;99.90;;;;;;4935380;29;20474;-78
2021/07/15 10:41:07;;;;;;;5.20;3.13;;;20.40;99.90;;;;;;4914551;29;20466;-77
2021/07/15 10:43:36;;;;;;;3.30;3.00;;;20.30;99.90;;;;;;4933661;29;20449;-77
2021/07/15 10:46:04;;;;;;;3.70;3.40;;;20.30;99.90;;;;;;4926548;29;20458;-76
2021/07/15 10:48:33;;;;;;;3.37;3.00;;;20.20;99.90;;;;;;4918568;29;20972;-78
2021/07/15 10:51:00;;;;;;;3.67;3.37;;;20.20;99.90;;;;;;4932807;29;20450;-77
2021/07/15 10:53:29;;;;;;;3.40;3.10;;;20.20;99.90;;;;;;4926069;29;20809;-79
2021/07/15 10:55:56;;;;;;;3.13;2.93;;;20.30;99.90;;;;;;4936905;29;20480;-78
2021/07/15 10:58:44;;;;;;;2.97;2.77;;;20.20;99.90;;;;;;4936921;29;20473;-78
2021/07/15 11:01:11;;;;;;;3.30;3.03;;;20.20;99.90;;;;;;4909432;29;20481;-79
2021/07/15 11:03:38;;;;;;;3.20;2.90;;;20.20;99.90;;;;;;4920243;29;20447;-77
2021/07/15 11:06:05;;;;;;;2.50;2.30;;;20.10;99.90;;;;;;4932992;29;20946;-77
2021/07/15 11:08:55;;;;;;;3.50;3.20;;;20.10;99.90;;;;;;4932376;29;20484;-79
2021/07/15 11:11:33;;;;;;;2.50;2.30;;;20.10;99.90;;;;;;4905779;29;20792;-75
2021/07/15 11:14:01;;;;;;;3.17;2.97;;;20.00;99.90;;;;;;4932876;29;20482;-77
2021/07/15 11:16:51;;;;;;;2.90;2.70;;;20.00;99.90;;;;;;4935450;29;20450;-78
2021/07/15 11:19:47;;;;;;;3.03;2.83;;;20.00;99.90;;;;;;4935406;28;20490;-77
2021/07/15 11:22:45;;;;;;;3.47;3.17;;;20.00;99.90;;;;;;4933671;29;20461;-78
2021/07/15 11:25:14;;;;;;;3.20;3.00;;;19.90;99.90;;;;;;4923778;29;21008;-78
2021/07/15 11:27:45;;;;;;;3.90;3.60;;;20.00;99.90;;;;;;4914702;29;20629;-78
2021/07/15 11:30:25;;;;;;;3.20;2.90;;;20.00;99.90;;;;;;4916599;29;20443;-77
2021/07/15 11:32:52;;;;;;;3.67;3.37;;;20.10;99.90;;;;;;4929593;28;20465;-79
2021/07/15 11:35:27;;;;;;;6.90;3.47;;;20.00;99.90;;;;;;4915963;29;20478;-77
2021/07/15 11:38:08;;;;;;;3.67;3.37;;;20.00;99.90;;;;;;4926816;29;20479;-78
2021/07/15 11:40:45;;;;;;;3.40;3.10;;;20.10;99.90;;;;;;4925753;29;20494;-77
2021/07/15 11:43:30;;;;;;;4.13;3.70;;;20.10;99.90;;;;;;4908251;29;20959;-77
2021/07/15 11:46:11;;;;;;;4.97;4.47;;;20.00;99.90;;;;;;4910631;29;20459;-79
2021/07/15 11:49:02;;;;;;;4.13;3.80;;;20.00;99.90;;;;;;4911951;29;20545;-79
2021/07/15 11:51:33;;;;;;;3.90;3.60;;;20.10;99.90;;;;;;4929480;29;20456;-78
2021/07/15 11:54:19;;;;;;;5.63;5.13;;;20.10;99.90;;;;;;4928369;29;20501;-77
2021/07/15 11:56:48;;;;;;;5.10;4.60;;;20.10;99.90;;;;;;4908604;29;20466;-78
2021/07/15 11:59:38;;;;;;;5.57;5.07;;;20.10;99.90;;;;;;4925846;29;20465;-77
2021/07/15 12:02:09;;;;;;;5.27;4.80;;;20.10;99.90;;;;;;4920488;29;20462;-77
2021/07/15 12:05:06;;;;;;;5.50;5.00;;;20.10;99.90;;;;;;4928236;29;20554;-78
2021/07/15 12:07:34;;;;;;;4.60;4.30;;;20.10;99.90;;;;;;4912272;29;20530;-77
2021/07/15 12:10:02;;;;;;;5.37;4.83;;;20.10;99.90;;;;;;4912425;29;20541;-79
2021/07/15 12:12:30;;;;;;;5.47;4.93;;;20.10;99.90;;;;;;4915270;29;20470;-78
2021/07/15 12:14:57;;;;;;;4.40;4.10;;;20.10;99.90;;;;;;4932297;29;21313;-77
2021/07/15 12:17:30;;;;;;;4.87;4.40;;;20.10;99.90;;;;;;4922219;28;20811;-79
2021/07/15 12:19:58;;;;;;;5.47;5.00;;;20.10;99.90;;;;;;4932921;29;20810;-78
2021/07/15 12:22:26;;;;;;;8.30;4.80;;;20.10;99.90;;;;;;4907526;29;20481;-77
2021/07/15 12:25:09;;;;;;;7.60;5.00;;;20.00;99.90;;;;;;4913842;29;20482;-79
2021/07/15 12:27:40;;;;;;;8.43;4.20;;;20.00;99.90;;;;;;4918329;29;20470;-77
2021/07/15 12:30:08;;;;;;;4.97;4.57;;;20.00;99.90;;;;;;4925737;29;20786;-77
2021/07/15 12:32:37;;;;;;;4.97;4.57;;;19.90;99.90;;;;;;4928851;29;20973;-76
2021/07/15 12:35:12;;;;;;;5.13;4.60;;;19.90;99.90;;;;;;4925367;29;21022;-80
2021/07/15 12:37:39;;;;;;;4.87;4.47;;;20.00;99.90;;;;;;4928247;29;21255;-78
2021/07/15 12:40:07;;;;;;;4.63;4.23;;;20.00;99.90;;;;;;4924717;29;20474;-79
2021/07/15 12:42:34;;;;;;;5.10;4.07;;;20.00;99.90;;;;;;4930948;29;20832;-78
2021/07/15 12:45:14;;;;;;;4.87;4.47;;;20.10;99.90;;;;;;4913799;29;20494;-76
2021/07/15 12:47:55;;;;;;;4.30;4.00;;;20.10;99.90;;;;;;4907026;29;20486;-80
2021/07/15 12:50:23;;;;;;;4.80;4.20;;;20.00;99.90;;;;;;4923906;29;20478;-80
2021/07/15 12:52:50;;;;;;;5.27;4.87;;;20.00;99.90;;;;;;4927502;29;20463;-78
2021/07/15 12:55:27;;;;;;;4.90;4.50;;;20.00;99.90;;;;;;4932336;29;20481;-76